Time;durP1;ratioP1;P1;durP2;ratioP2;P2;SDS_P1;SDS_P2;PMS_P1;PMS_P2;Temp;Humidity;BMP_temperature;BMP_pressure;BME280_temperature;BME280_humidity;BME280_pressure;Samples;Min_cycle;Max_cycle;Signal;HPM_P1;HPM_P2
2022/06/14 00:01:37;;;;;;;;;;;;;;;39.86;4.58;100291.50;5093571;28;19911;-60
2022/06/14 00:04:03;;;;;;;;;;;;;;;40.26;4.10;100284.75;5093890;28;19916;-63
2022/06/14 00:06:31;;;;;;;;;;;;;;;39.99;4.08;100276.28;5093581;28;19915;-61
2022/06/14 00:08:58;;;;;;;;;;;;;;;40.48;3.94;100278.81;5093645;28;19928;-62
2022/06/14 00:11:27;;;;;;;;;;;;;;;40.79;4.08;100258.56;5093599;28;19916;-61
2022/06/14 00:13:54;;;;;;;;;;;;;;;40.98;3.90;100248.63;5093933;28;19969;-61
2022/06/14 00:16:21;;;;;;;;;;;;;;;41.08;4.01;100271.34;5093673;28;19939;-61
2022/06/14 00:18:47;;;;;;;;;;;;;;;40.81;4.48;100253.16;5093784;28;19916;-61
2022/06/14 00:21:14;;;;;;;;;;;;;;;40.25;4.57;100266.09;5093687;28;19908;-61
2022/06/14 00:23:40;;;;;;;;;;;;;;;40.72;4.87;100253.19;5093580;28;19919;-61
2022/06/14 00:26:06;;;;;;;;;;;;;;;40.63;4.61;100267.50;5093694;28;19919;-61
2022/06/14 00:28:34;;;;;;;;;;;;;;;40.49;4.84;100256.81;5093648;28;20061;-61
2022/06/14 00:31:02;;;;;;;;;;;;;;;40.55;4.87;100254.88;5093573;28;20035;-61
2022/06/14 00:33:28;;;;;;;;;;;;;;;40.13;4.85;100244.31;5093695;28;20278;-62
2022/06/14 00:36:05;;;;;;;;;;;;;;;39.81;5.26;100252.28;5093539;28;19919;-62
2022/06/14 00:38:32;;;;;;;;;;;;;;;39.89;5.18;100255.59;5093520;28;20267;-61
2022/06/14 00:40:59;;;;;;;;;;;;;;;40.32;4.38;100245.00;5093498;28;20282;-61
2022/06/14 00:43:27;;;;;;;;;;;;;;;40.26;4.60;100239.19;5093483;28;19923;-61
2022/06/14 00:46:10;;;;;;;;;;;;;;;39.88;5.09;100240.56;5093297;28;19997;-60
2022/06/14 00:48:37;;;;;;;;;;;;;;;39.02;4.97;100237.13;5093423;28;19916;-61
2022/06/14 00:51:20;;;;;;;;;;;;;;;39.42;4.63;100233.38;5093416;28;20285;-61
2022/06/14 00:53:50;;;;;;;;;;;;;;;39.03;4.95;100230.19;5093326;28;20006;-61
2022/06/14 00:56:20;;;;;;;;;;;;;;;38.98;4.75;100237.31;5093514;28;19915;-61
2022/06/14 00:59:04;;;;;;;;;;;;;;;38.68;4.99;100229.69;5093196;28;20373;-61
2022/06/14 01:01:33;;;;;;;;;;;;;;;38.72;4.59;100230.31;5093088;28;19916;-60
2022/06/14 01:04:05;;;;;;;;;;;;;;;39.09;4.71;100234.00;5093131;28;19908;-60
2022/06/14 01:06:34;;;;;;;;;;;;;;;39.06;4.91;100229.25;5093048;28;19923;-60
2022/06/14 01:09:06;;;;;;;;;;;;;;;39.13;4.26;100228.16;5093243;27;19912;-60
2022/06/14 01:11:36;;;;;;;;;;;;;;;39.20;4.20;100233.53;5093268;28;19916;-61
2022/06/14 01:14:03;;;;;;;;;;;;;;;39.43;3.92;100230.03;5093074;28;19923;-62
2022/06/14 01:16:31;;;;;;;;;;;;;;;39.22;4.22;100237.47;5093004;28;20010;-61
2022/06/14 01:18:57;;;;;;;;;;;;;;;39.25;4.10;100236.53;5075445;28;20278;-61
2022/06/14 01:21:24;;;;;;;;;;;;;;;38.68;4.78;100232.50;5096650;28;19912;-61
2022/06/14 01:23:51;;;;;;;;;;;;;;;38.78;4.59;100227.63;5096698;28;19919;-61
2022/06/14 01:26:22;;;;;;;;;;;;;;;38.58;4.74;100234.50;5095558;28;20015;-60
2022/06/14 01:28:53;;;;;;;;;;;;;;;38.31;5.05;100220.25;5096806;28;19920;-61
2022/06/14 01:31:20;;;;;;;;;;;;;;;38.52;4.98;100219.34;5096523;28;19923;-61
2022/06/14 01:33:49;;;;;;;;;;;;;;;38.46;5.11;100231.81;5095356;28;19923;-62
2022/06/14 01:36:18;;;;;;;;;;;;;;;38.09;5.53;100220.28;5096619;28;19935;-61
2022/06/14 01:38:45;;;;;;;;;;;;;;;38.46;5.46;100224.06;5096454;28;19916;-61
2022/06/14 01:41:30;;;;;;;;;;;;;;;38.61;5.09;100233.59;5096615;28;19916;-61
2022/06/14 01:43:57;;;;;;;;;;;;;;;38.10;5.49;100222.66;5096318;28;20358;-61
2022/06/14 01:46:23;;;;;;;;;;;;;;;38.44;4.83;100225.81;5096411;28;19927;-62
2022/06/14 01:51:50;;;;;;;;;;;;;;;38.12;5.49;100227.88;5096363;28;19920;-62
2022/06/14 01:51:54;;;;;;;;;;;;;;;37.29;5.69;100226.53;5096386;28;19916;-60
2022/06/14 01:54:28;;;;;;;;;;;;;;;37.63;5.75;100227.72;5096318;28;19924;-61
2022/06/14 01:56:55;;;;;;;;;;;;;;;37.50;5.90;100224.97;5096254;28;20003;-61
2022/06/14 01:59:24;;;;;;;;;;;;;;;37.52;5.97;100219.63;5096333;28;19912;-61
2022/06/14 02:02:19;;;;;;;;;;;;;;;37.35;5.83;100224.72;5095984;28;19920;-61
2022/06/14 02:04:53;;;;;;;;;;;;;;;36.88;5.83;100225.53;5085931;28;19970;-62
2022/06/14 02:07:24;;;;;;;;;;;;;;;36.75;5.92;100221.91;5095987;28;19912;-62
2022/06/14 02:09:56;;;;;;;;;;;;;;;36.64;5.94;100224.34;5095630;28;19916;-62
2022/06/14 02:12:30;;;;;;;;;;;;;;;36.37;6.51;100218.38;5095454;28;20014;-61
2022/06/14 02:15:23;;;;;;;;;;;;;;;36.15;6.95;100218.25;5073423;28;19920;-61
2022/06/14 02:17:57;;;;;;;;;;;;;;;35.93;7.23;100220.94;5081032;28;19920;-61
2022/06/14 02:20:26;;;;;;;;;;;;;;;35.70;7.47;100222.78;5087072;28;19916;-61
2022/06/14 02:22:56;;;;;;;;;;;;;;;35.41;7.89;100216.41;5087565;28;19927;-60
2022/06/14 02:25:27;;;;;;;;;;;;;;;35.16;8.23;100227.56;5089301;28;19916;-61
2022/06/14 02:28:02;;;;;;;;;;;;;;;34.79;8.80;100232.53;5088923;28;19916;-60
2022/06/14 02:30:32;;;;;;;;;;;;;;;34.61;9.23;100229.38;5089239;28;19916;-60
2022/06/14 02:33:01;;;;;;;;;;;;;;;34.27;9.42;100224.13;5088785;28;20286;-62
2022/06/14 02:35:45;;;;;;;;;;;;;;;33.93;9.67;100223.31;5111306;27;19916;-61
2022/06/14 02:38:33;;;;;;;;;;;;;;;33.66;9.51;100217.00;5088906;28;20377;-61
2022/06/14 02:41:02;;;;;;;;;;;;;;;33.59;9.34;100219.97;5085484;28;19966;-63
2022/06/14 02:44:00;;;;;;;;;;;;;;;33.32;9.64;100222.91;5089972;28;20435;-63
2022/06/14 02:46:31;;;;;;;;;;;;;;;33.25;9.84;100223.84;5055673;28;20006;-60
2022/06/14 02:49:18;;;;;;;;;;;;;;;33.05;9.19;100220.22;5083731;28;20444;-60
2022/06/14 02:51:52;;;;;;;;;;;;;;;32.95;9.41;100226.81;5084706;28;20320;-60
2022/06/14 02:54:39;;;;;;;;;;;;;;;32.93;9.31;100232.09;5086507;28;19916;-59
2022/06/14 02:57:05;;;;;;;;;;;;;;;32.56;10.02;100233.91;5074701;28;20010;-60
2022/06/14 02:59:44;;;;;;;;;;;;;;;32.23;10.00;100237.59;5088013;28;19923;-60
2022/06/14 03:02:18;;;;;;;;;;;;;;;32.21;9.58;100243.66;5088670;28;19984;-61
2022/06/14 03:04:54;;;;;;;;;;;;;;;32.30;10.06;100243.13;5112533;27;19928;-60
2022/06/14 03:07:24;;;;;;;;;;;;;;;32.19;9.59;100236.88;5080389;28;19947;-60
2022/06/14 03:09:51;;;;;;;;;;;;;;;31.99;9.71;100243.16;5083232;28;19916;-60
2022/06/14 03:12:17;;;;;;;;;;;;;;;31.76;10.29;100229.00;5085577;28;19916;-60
2022/06/14 03:14:43;;;;;;;;;;;;;;;31.47;10.47;100232.16;5084758;28;19916;-59
2022/06/14 03:17:10;;;;;;;;;;;;;;;31.22;10.69;100231.63;5079903;28;19916;-60
2022/06/14 03:19:59;;;;;;;;;;;;;;;31.13;10.87;100240.53;5080898;28;19942;-60
2022/06/14 03:22:37;;;;;;;;;;;;;;;30.96;11.02;100235.88;5085883;28;19978;-61
2022/06/14 03:25:04;;;;;;;;;;;;;;;30.73;11.17;100233.69;5085474;28;19960;-60
2022/06/14 03:27:43;;;;;;;;;;;;;;;30.78;11.31;100229.63;5090029;28;20033;-62
2022/06/14 03:30:15;;;;;;;;;;;;;;;30.37;11.50;100233.16;5085350;28;19919;-60
2022/06/14 03:32:41;;;;;;;;;;;;;;;30.25;11.61;100242.03;5089261;28;20567;-61
2022/06/14 03:35:13;;;;;;;;;;;;;;;30.45;11.83;100248.69;5089167;28;20390;-60
2022/06/14 03:37:40;;;;;;;;;;;;;;;30.59;11.92;100248.59;5083207;28;19916;-59
2022/06/14 03:40:09;;;;;;;;;;;;;;;30.56;12.16;100245.81;5090733;28;19916;-60
2022/06/14 03:42:37;;;;;;;;;;;;;;;30.45;11.88;100251.50;5084033;28;19919;-61
2022/06/14 03:45:03;;;;;;;;;;;;;;;30.40;12.08;100256.75;5085171;28;19916;-62
2022/06/14 03:47:30;;;;;;;;;;;;;;;30.24;12.31;100254.44;5091340;28;20387;-62
2022/06/14 03:49:59;;;;;;;;;;;;;;;30.04;12.17;100254.97;5086679;28;19911;-62
2022/06/14 03:52:38;;;;;;;;;;;;;;;29.88;12.10;100257.41;5092215;28;19956;-62
2022/06/14 03:55:04;;;;;;;;;;;;;;;29.85;11.75;100260.25;5083489;28;19923;-60
2022/06/14 03:57:39;;;;;;;;;;;;;;;29.90;11.43;100259.81;5082478;28;20371;-60
2022/06/14 04:00:10;;;;;;;;;;;;;;;30.04;10.81;100251.38;5085054;28;19921;-59
2022/06/14 04:02:55;;;;;;;;;;;;;;;30.00;10.53;100265.38;5084086;28;19916;-60
2022/06/14 04:05:39;;;;;;;;;;;;;;;30.11;9.70;100270.94;5087270;28;19955;-60
2022/06/14 04:08:13;;;;;;;;;;;;;;;30.04;9.70;100273.78;5083511;27;19924;-59
2022/06/14 04:10:44;;;;;;;;;;;;;;;29.88;9.98;100273.44;5088109;28;20410;-60
2022/06/14 04:13:10;;;;;;;;;;;;;;;29.98;9.96;100275.38;5113341;28;19957;-61
2022/06/14 04:15:45;;;;;;;;;;;;;;;29.89;10.71;100269.41;5112716;28;19920;-60
2022/06/14 04:21:00;;;;;;;;;;;;;;;29.62;11.60;100283.13;5087824;28;19942;-62
2022/06/14 04:23:36;;;;;;;;;;;;;;;29.62;11.52;100283.91;5086258;28;19922;-62
2022/06/14 04:26:14;;;;;;;;;;;;;;;29.47;12.05;100293.59;5084644;28;20470;-59
2022/06/14 04:28:53;;;;;;;;;;;;;;;29.46;11.66;100287.19;5083909;28;19927;-59
2022/06/14 04:31:28;;;;;;;;;;;;;;;29.39;12.20;100280.75;5080322;28;20281;-60
2022/06/14 04:34:13;;;;;;;;;;;;;;;29.24;12.13;100284.78;5082545;28;19916;-59
2022/06/14 04:36:42;;;;;;;;;;;;;;;29.18;12.52;100290.78;5084499;28;20018;-60
2022/06/14 04:39:16;;;;;;;;;;;;;;;29.19;12.72;100306.38;5089323;28;20472;-60
2022/06/14 04:41:56;;;;;;;;;;;;;;;29.26;13.09;100305.56;5086916;28;20006;-60
2022/06/14 04:44:36;;;;;;;;;;;;;;;29.09;12.97;100304.41;5080255;28;20362;-60
2022/06/14 04:47:12;;;;;;;;;;;;;;;29.03;12.98;100305.19;5079209;28;19912;-59
2022/06/14 04:49:56;;;;;;;;;;;;;;;28.87;13.26;100311.19;5073270;28;19917;-60
2022/06/14 04:52:29;;;;;;;;;;;;;;;28.73;13.10;100317.56;5074559;28;19916;-60
2022/06/14 04:54:56;;;;;;;;;;;;;;;28.65;12.87;100320.72;5086759;28;19966;-62
2022/06/14 04:57:27;;;;;;;;;;;;;;;28.63;13.07;100334.31;5085526;28;20370;-60
2022/06/14 05:00:03;;;;;;;;;;;;;;;28.39;12.89;100330.28;5084249;28;20045;-62
2022/06/14 05:02:34;;;;;;;;;;;;;;;28.37;13.00;100333.47;5086897;28;19932;-61
2022/06/14 05:05:05;;;;;;;;;;;;;;;28.38;13.31;100337.88;5076481;28;19977;-58
2022/06/14 05:07:43;;;;;;;;;;;;;;;27.99;13.89;100329.28;5084293;28;20373;-61
2022/06/14 05:10:09;;;;;;;;;;;;;;;27.93;13.79;100342.03;5088832;28;20365;-61
2022/06/14 05:12:52;;;;;;;;;;;;;;;28.20;13.69;100334.19;5077948;28;20003;-59
2022/06/14 05:15:18;;;;;;;;;;;;;;;28.07;13.92;100335.72;5091836;28;19916;-59
2022/06/14 05:17:48;;;;;;;;;;;;;;;27.93;14.63;100331.66;5095506;28;19916;-60
2022/06/14 05:20:41;;;;;;;;;;;;;;;27.87;14.79;100327.66;5103844;27;19912;-61
2022/06/14 05:23:11;;;;;;;;;;;;;;;27.66;15.10;100330.34;5088260;28;19966;-60
2022/06/14 05:25:49;;;;;;;;;;;;;;;27.71;15.22;100329.16;5097630;28;19916;-60
2022/06/14 05:28:23;;;;;;;;;;;;;;;27.77;15.22;100327.59;5108432;28;19923;-61
2022/06/14 05:30:58;;;;;;;;;;;;;;;27.70;15.10;100331.16;5107454;28;19915;-60
2022/06/14 05:33:37;;;;;;;;;;;;;;;27.61;14.95;100319.50;5096821;27;19995;-61
2022/06/14 05:36:07;;;;;;;;;;;;;;;27.52;15.43;100325.44;5097878;28;19922;-59
2022/06/14 05:38:55;;;;;;;;;;;;;;;27.45;15.51;100330.16;5104164;28;19953;-60
2022/06/14 05:41:22;;;;;;;;;;;;;;;27.40;15.55;100336.91;5111119;28;19922;-60
2022/06/14 05:43:51;;;;;;;;;;;;;;;27.25;15.63;100327.63;5087759;28;19912;-62
2022/06/14 05:46:25;;;;;;;;;;;;;;;27.05;15.86;100338.25;5088955;28;19916;-60
2022/06/14 05:48:56;;;;;;;;;;;;;;;27.01;15.34;100326.25;5093414;28;20404;-61
2022/06/14 05:51:25;;;;;;;;;;;;;;;26.98;15.21;100323.41;5094098;28;19919;-60
2022/06/14 05:54:03;;;;;;;;;;;;;;;27.10;15.01;100323.13;5095825;28;19962;-62
2022/06/14 05:56:35;;;;;;;;;;;;;;;27.09;14.67;100315.94;5094403;28;19916;-61
2022/06/14 05:59:32;;;;;;;;;;;;;;;26.92;14.97;100313.78;5108969;28;19915;-59
2022/06/14 06:02:03;;;;;;;;;;;;;;;26.77;15.00;100315.66;5076465;28;19927;-60
2022/06/14 06:04:37;;;;;;;;;;;;;;;26.90;14.45;100314.19;5104273;27;19916;-59
2022/06/14 06:07:06;;;;;;;;;;;;;;;27.05;14.47;100320.72;5107366;28;19916;-60
2022/06/14 06:09:35;;;;;;;;;;;;;;;27.03;14.36;100309.94;5096610;28;19916;-60
2022/06/14 06:12:08;;;;;;;;;;;;;;;27.06;13.88;100303.59;5107957;28;19920;-60
2022/06/14 06:14:41;;;;;;;;;;;;;;;27.06;13.52;100311.94;5103370;28;20031;-59
2022/06/14 06:17:12;;;;;;;;;;;;;;;27.04;12.93;100314.31;5099285;28;19916;-61
2022/06/14 06:20:13;;;;;;;;;;;;;;;26.97;12.27;100319.03;5096470;28;19915;-59
2022/06/14 06:22:53;;;;;;;;;;;;;;;26.74;11.78;100328.38;4993107;28;19917;-62
2022/06/14 06:25:22;;;;;;;;;;;;;;;26.71;11.80;100337.50;5084203;28;19915;-62
2022/06/14 06:27:52;;;;;;;;;;;;;;;26.71;11.60;100340.28;5093689;28;19919;-62
2022/06/14 06:30:28;;;;;;;;;;;;;;;26.68;12.12;100335.50;5116574;27;19923;-61
2022/06/14 06:32:56;;;;;;;;;;;;;;;26.68;12.52;100334.69;5094877;28;19970;-62
2022/06/14 06:35:27;;;;;;;;;;;;;;;26.67;11.95;100316.34;5093178;28;19919;-63
2022/06/14 06:38:02;;;;;;;;;;;;;;;26.65;11.63;100325.09;5093313;28;19916;-64
2022/06/14 06:40:30;;;;;;;;;;;;;;;26.87;10.56;100326.09;5093841;28;19916;-62
2022/06/14 06:43:05;;;;;;;;;;;;;;;27.30;9.25;100327.28;5093755;28;19916;-64
2022/06/14 06:45:34;;;;;;;;;;;;;;;27.32;9.01;100327.69;5094388;28;19915;-60
2022/06/14 06:48:06;;;;;;;;;;;;;;;27.63;8.89;100333.88;5092569;28;19916;-63
2022/06/14 06:50:38;;;;;;;;;;;;;;;27.50;9.21;100330.63;5105150;28;20271;-62
2022/06/14 06:53:13;;;;;;;;;;;;;;;27.54;9.99;100327.84;5108038;28;19916;-62
2022/06/14 06:55:43;;;;;;;;;;;;;;;27.31;11.06;100334.47;5107115;28;20301;-60
2022/06/14 06:58:13;;;;;;;;;;;;;;;27.13;11.56;100330.75;5110198;27;20293;-62
2022/06/14 07:00:40;;;;;;;;;;;;;;;27.06;11.55;100344.63;5096639;28;19947;-64
2022/06/14 07:03:13;;;;;;;;;;;;;;;26.87;11.26;100345.63;5092516;28;19916;-63
2022/06/14 07:05:39;;;;;;;;;;;;;;;26.78;11.17;100351.53;5091569;28;19924;-63
2022/06/14 07:08:05;;;;;;;;;;;;;;;26.84;11.45;100340.81;5095147;28;19912;-61
2022/06/14 07:10:41;;;;;;;;;;;;;;;26.84;12.46;100359.53;5096292;28;19969;-62
2022/06/14 07:13:07;;;;;;;;;;;;;;;26.67;13.50;100358.97;5108332;28;19915;-62
2022/06/14 07:15:36;;;;;;;;;;;;;;;26.40;14.03;100363.06;5097032;28;20327;-62
2022/06/14 07:18:17;;;;;;;;;;;;;;;26.39;14.59;100361.44;5107254;28;19923;-61
2022/06/14 07:20:48;;;;;;;;;;;;;;;26.24;14.37;100370.81;5093802;28;19922;-63
2022/06/14 07:23:21;;;;;;;;;;;;;;;26.44;14.54;100369.47;5109136;28;20507;-62
2022/06/14 07:26:10;;;;;;;;;;;;;;;26.42;15.55;100377.44;5080433;28;19923;-62
2022/06/14 07:28:50;;;;;;;;;;;;;;;26.05;16.29;100374.56;5094911;28;19916;-61
2022/06/14 07:31:23;;;;;;;;;;;;;;;25.73;17.29;100386.03;5109239;28;20003;-64
2022/06/14 07:33:49;;;;;;;;;;;;;;;25.59;19.28;100386.59;5078779;28;20022;-62
2022/06/14 07:36:24;;;;;;;;;;;;;;;25.46;17.79;100389.94;5091180;28;19916;-62
2022/06/14 07:38:55;;;;;;;;;;;;;;;25.22;18.18;100391.16;5105607;28;19921;-62
2022/06/14 07:41:22;;;;;;;;;;;;;;;25.22;18.67;100391.16;5095472;28;19922;-64
2022/06/14 07:43:48;;;;;;;;;;;;;;;25.19;17.84;100391.91;5079975;28;19934;-63
2022/06/14 07:46:22;;;;;;;;;;;;;;;25.17;18.52;100397.03;5106131;28;19920;-64
2022/06/14 07:49:00;;;;;;;;;;;;;;;25.39;17.46;100393.44;5105408;28;19922;-65
2022/06/14 07:51:31;;;;;;;;;;;;;;;25.36;17.88;100390.59;5096964;28;20405;-65
2022/06/14 07:54:03;;;;;;;;;;;;;;;25.52;17.59;100394.84;5109063;28;19916;-66
2022/06/14 07:56:32;;;;;;;;;;;;;;;25.19;18.37;100403.84;5102820;28;20010;-66
2022/06/14 07:59:13;;;;;;;;;;;;;;;24.83;20.44;100396.81;5108197;28;19919;-65
2022/06/14 08:01:52;;;;;;;;;;;;;;;24.77;18.98;100392.72;5096707;28;20278;-65
2022/06/14 08:04:18;;;;;;;;;;;;;;;24.67;19.44;100396.09;5112884;28;19954;-64
2022/06/14 08:06:52;;;;;;;;;;;;;;;24.49;19.85;100406.06;5104939;28;20389;-64
2022/06/14 08:09:18;;;;;;;;;;;;;;;24.67;19.49;100398.88;5095568;28;19963;-67
2022/06/14 08:11:48;;;;;;;;;;;;;;;24.92;19.76;100394.59;5108973;28;19916;-65
2022/06/14 08:14:27;;;;;;;;;;;;;;;25.01;20.07;100402.72;5100147;28;19923;-66
2022/06/14 08:16:54;;;;;;;;;;;;;;;24.70;21.70;100406.47;5100238;28;19966;-65
2022/06/14 08:19:25;;;;;;;;;;;;;;;24.67;19.95;100416.38;5109061;28;19930;-64
2022/06/14 08:21:55;;;;;;;;;;;;;;;24.59;20.08;100411.03;5081205;28;20000;-65
2022/06/14 08:24:23;;;;;;;;;;;;;;;24.33;20.86;100420.03;5105221;28;19916;-66
2022/06/14 08:26:54;;;;;;;;;;;;;;;24.14;20.59;100409.69;5105169;28;19960;-66
2022/06/14 08:29:30;;;;;;;;;;;;;;;23.97;21.97;100408.13;5116225;28;19920;-65
2022/06/14 08:32:02;;;;;;;;;;;;;;;23.71;21.65;100416.25;5086263;28;19994;-66
2022/06/14 08:34:32;;;;;;;;;;;;;;;23.72;21.50;100421.44;5107432;28;19916;-63
2022/06/14 08:37:18;;;;;;;;;;;;;;;23.63;21.85;100426.38;5110729;28;19919;-64
2022/06/14 08:40:02;;;;;;;;;;;;;;;23.74;21.38;100430.22;5100173;28;19931;-65
2022/06/14 08:42:31;;;;;;;;;;;;;;;24.10;21.17;100428.25;5107540;28;20370;-64
2022/06/14 08:45:04;;;;;;;;;;;;;;;24.06;21.89;100427.38;5110438;28;19912;-64
2022/06/14 08:47:39;;;;;;;;;;;;;;;24.30;21.09;100427.13;5099076;28;20289;-64
2022/06/14 08:50:10;;;;;;;;;;;;;;;24.65;20.75;100423.47;5111194;28;19993;-65
2022/06/14 08:52:57;;;;;;;;;;;;;;;24.51;21.61;100418.41;5107077;28;19916;-64
2022/06/14 08:55:42;;;;;;;;;;;;;;;24.76;20.60;100416.13;5100383;28;20019;-65
2022/06/14 08:58:32;;;;;;;;;;;;;;;25.07;20.10;100412.34;5110557;28;20374;-63
2022/06/14 09:01:04;;;;;;;;;;;;;;;24.79;20.84;100407.06;5110104;28;20393;-63
2022/06/14 09:03:45;;;;;;;;;;;;;;;24.65;20.86;100404.00;5100164;28;19915;-64
2022/06/14 09:06:12;;;;;;;;;;;;;;;24.83;20.21;100399.59;5098118;28;19980;-65
2022/06/14 09:09:00;;;;;;;;;;;;;;;25.02;20.07;100401.56;5105221;28;19912;-63
2022/06/14 09:11:29;;;;;;;;;;;;;;;24.95;19.76;100407.75;5113216;28;19955;-66
2022/06/14 09:13:55;;;;;;;;;;;;;;;24.86;19.74;100414.72;5099741;28;19953;-64
2022/06/14 09:16:31;;;;;;;;;;;;;;;24.64;20.54;100407.97;5096339;28;19969;-65
2022/06/14 09:19:00;;;;;;;;;;;;;;;24.45;20.48;100413.53;5109830;28;19916;-64
2022/06/14 09:21:45;;;;;;;;;;;;;;;24.20;20.87;100402.66;5098383;28;19998;-65
2022/06/14 09:24:11;;;;;;;;;;;;;;;23.95;21.22;100398.56;5109554;28;19966;-63
2022/06/14 09:26:56;;;;;;;;;;;;;;;23.84;22.05;100403.06;5088247;28;19912;-63
2022/06/14 09:29:29;;;;;;;;;;;;;;;23.98;21.13;100404.19;5099680;28;19916;-62
2022/06/14 09:32:01;;;;;;;;;;;;;;;24.40;19.95;100409.06;5111947;28;20374;-63
2022/06/14 09:34:47;;;;;;;;;;;;;;;24.26;20.16;100409.56;5097342;28;19916;-62
2022/06/14 09:37:17;;;;;;;;;;;;;;;24.10;20.07;100428.25;5095031;28;20010;-63
2022/06/14 09:39:49;;;;;;;;;;;;;;;23.88;20.93;100426.97;5111607;28;19912;-62
2022/06/14 09:42:27;;;;;;;;;;;;;;;23.61;22.07;100433.44;5103299;28;19923;-62
2022/06/14 09:45:13;;;;;;;;;;;;;;;23.42;21.61;100434.16;5103450;28;20381;-62
2022/06/14 09:47:58;;;;;;;;;;;;;;;23.21;22.25;100435.22;5112706;28;20334;-63
2022/06/14 09:50:38;;;;;;;;;;;;;;;23.08;22.74;100432.88;5104557;28;20052;-63
2022/06/14 09:53:13;;;;;;;;;;;;;;;22.97;24.28;100435.34;5101406;28;20032;-62
2022/06/14 09:55:40;;;;;;;;;;;;;;;23.01;22.85;100439.06;5112472;28;19968;-63
2022/06/14 09:58:06;;;;;;;;;;;;;;;22.90;23.85;100441.53;5101552;28;19912;-62
2022/06/14 10:00:39;;;;;;;;;;;;;;;22.82;23.95;100445.28;5106029;28;20022;-62
2022/06/14 10:03:24;;;;;;;;;;;;;;;22.83;22.79;100446.06;5110301;28;20008;-62
2022/06/14 10:05:54;;;;;;;;;;;;;;;22.67;22.84;100445.19;5097792;28;20394;-62
2022/06/14 10:08:29;;;;;;;;;;;;;;;22.58;23.10;100454.44;5106600;28;19919;-63
2022/06/14 10:11:21;;;;;;;;;;;;;;;22.75;23.38;100456.09;5108403;28;20369;-63
2022/06/14 10:13:57;;;;;;;;;;;;;;;22.96;22.02;100458.69;5073837;28;19916;-64
2022/06/14 10:16:23;;;;;;;;;;;;;;;23.01;21.16;100449.34;5105638;28;20326;-63
2022/06/14 10:19:03;;;;;;;;;;;;;;;22.74;21.46;100450.94;5107525;28;20401;-64
2022/06/14 10:21:38;;;;;;;;;;;;;;;22.36;21.91;100455.00;5098756;28;19923;-63
2022/06/14 10:24:13;;;;;;;;;;;;;;;22.52;21.38;100455.06;5109349;28;19915;-62
2022/06/14 10:30:05;;;;;;;;;;;;;;;22.50;21.36;100441.56;5072668;28;20019;-65
2022/06/14 10:32:52;;;;;;;;;;;;;;;22.12;21.94;100446.75;5072365;28;20332;-63
2022/06/14 10:35:27;;;;;;;;;;;;;;;22.14;21.86;100459.09;5088233;28;19916;-63
2022/06/14 10:38:15;;;;;;;;;;;;;;;22.13;21.73;100470.50;5083604;28;19968;-65
2022/06/14 10:40:52;;;;;;;;;;;;;;;21.88;22.88;100464.94;5096632;28;20009;-63
2022/06/14 10:43:20;;;;;;;;;;;;;;;21.74;22.98;100467.28;5098702;28;19915;-66
2022/06/14 10:45:47;;;;;;;;;;;;;;;21.62;22.60;100467.28;5111483;28;19922;-64
2022/06/14 10:48:14;;;;;;;;;;;;;;;22.26;22.09;100469.31;5102119;28;19951;-64
2022/06/14 10:50:49;;;;;;;;;;;;;;;21.98;22.13;100453.44;5103732;28;20362;-65
2022/06/14 10:53:19;;;;;;;;;;;;;;;21.63;23.01;100458.63;5094591;28;20373;-64
2022/06/14 10:55:52;;;;;;;;;;;;;;;21.52;22.99;100463.00;5111390;28;20417;-63
2022/06/14 10:58:33;;;;;;;;;;;;;;;21.54;22.85;100474.50;5102607;28;19983;-63
2022/06/14 11:01:18;;;;;;;;;;;;;;;21.30;23.34;100477.25;5104529;28;19918;-63
2022/06/14 11:03:58;;;;;;;;;;;;;;;21.13;23.22;100467.97;5114338;28;19939;-63
2022/06/14 11:06:43;;;;;;;;;;;;;;;21.27;22.95;100476.00;5105913;28;19916;-65
2022/06/14 11:09:28;;;;;;;;;;;;;;;22.09;21.32;100486.22;5099462;28;19961;-63
2022/06/14 11:12:13;;;;;;;;;;;;;;;21.73;21.96;100490.56;5082919;28;20030;-63
2022/06/14 11:14:48;;;;;;;;;;;;;;;21.49;22.38;100496.88;5103494;28;20006;-63
2022/06/14 11:17:24;;;;;;;;;;;;;;;21.35;22.65;100488.09;5110021;28;19918;-64
2022/06/14 11:20:03;;;;;;;;;;;;;;;21.34;22.23;100494.78;5081824;28;19922;-64
2022/06/14 11:22:36;;;;;;;;;;;;;;;21.14;22.57;100499.19;5104772;28;19958;-63
2022/06/14 11:25:12;;;;;;;;;;;;;;;20.98;22.84;100499.00;5108239;28;20277;-65
2022/06/14 11:27:49;;;;;;;;;;;;;;;20.90;23.26;100508.22;5096137;28;19998;-63
2022/06/14 11:30:31;;;;;;;;;;;;;;;20.95;23.72;100516.28;5106553;28;19955;-63
2022/06/14 11:33:15;;;;;;;;;;;;;;;21.04;23.40;100516.22;5107334;28;19965;-65
2022/06/14 11:35:48;;;;;;;;;;;;;;;20.78;23.65;100521.97;5096824;28;19962;-63
2022/06/14 11:38:26;;;;;;;;;;;;;;;20.76;23.77;100524.25;5106730;28;19916;-65
2022/06/14 11:41:14;;;;;;;;;;;;;;;20.86;23.89;100523.84;5092322;28;19923;-64
2022/06/14 11:43:54;;;;;;;;;;;;;;;20.83;23.68;100523.72;5110158;28;20437;-64
2022/06/14 11:46:40;;;;;;;;;;;;;;;20.75;24.16;100531.72;5101993;28;19915;-64
2022/06/14 11:49:18;;;;;;;;;;;;;;;20.83;24.28;100526.50;5099288;28;19927;-64
2022/06/14 11:52:02;;;;;;;;;;;;;;;20.75;24.41;100528.97;5110041;28;20010;-65
2022/06/14 11:54:51;;;;;;;;;;;;;;;20.76;24.35;100541.63;5102724;28;19916;-63
2022/06/14 11:57:26;;;;;;;;;;;;;;;20.80;24.76;100547.28;5068875;28;19943;-65
2022/06/14 12:00:03;;;;;;;;;;;;;;;20.63;24.97;100542.69;5081338;28;20002;-64
2022/06/14 12:02:39;;;;;;;;;;;;;;;20.63;24.91;100542.69;5102302;28;19951;-67
2022/06/14 12:05:05;;;;;;;;;;;;;;;20.65;25.39;100551.50;5094876;28;19919;-65
2022/06/14 12:07:37;;;;;;;;;;;;;;;20.74;26.22;100557.72;5110166;28;19935;-65
2022/06/14 12:10:22;;;;;;;;;;;;;;;20.75;26.29;100556.59;5098826;28;19941;-66
2022/06/14 12:13:06;;;;;;;;;;;;;;;20.71;25.88;100549.31;5101305;28;20246;-65
2022/06/14 12:15:38;;;;;;;;;;;;;;;20.65;26.56;100561.72;5109911;28;20297;-66
2022/06/14 12:18:09;;;;;;;;;;;;;;;20.57;26.55;100560.63;5099268;28;20396;-65
2022/06/14 12:20:38;;;;;;;;;;;;;;;20.51;27.17;100556.44;5101775;28;20289;-63
2022/06/14 12:23:22;;;;;;;;;;;;;;;20.53;27.46;100565.22;5106203;28;19934;-64
2022/06/14 12:28:51;;;;;;;;;;;;;;;20.59;28.01;100579.63;5102791;28;19916;-65
2022/06/14 12:31:27;;;;;;;;;;;;;;;20.42;28.16;100586.06;5097576;28;19985;-63
2022/06/14 12:34:16;;;;;;;;;;;;;;;21.00;27.62;100600.91;5085103;28;19977;-63
2022/06/14 12:37:05;;;;;;;;;;;;;;;21.24;26.95;100608.50;5089585;28;19918;-63
2022/06/14 12:39:34;;;;;;;;;;;;;;;21.01;27.70;100605.31;5095055;28;19919;-64
2022/06/14 12:42:09;;;;;;;;;;;;;;;20.76;28.15;100612.63;5106049;28;19964;-65
2022/06/14 12:44:42;;;;;;;;;;;;;;;20.81;27.96;100616.00;5102300;28;19955;-63
2022/06/14 12:47:19;;;;;;;;;;;;;;;20.96;27.78;100622.88;5103232;28;19924;-67
2022/06/14 12:49:49;;;;;;;;;;;;;;;20.92;27.95;100621.94;5094288;28;19917;-66
2022/06/14 12:52:27;;;;;;;;;;;;;;;20.75;28.30;100628.38;5084939;28;20015;-64
2022/06/14 12:54:58;;;;;;;;;;;;;;;20.87;28.09;100629.63;5093492;28;19916;-63
2022/06/14 12:57:42;;;;;;;;;;;;;;;21.32;27.36;100640.81;5094277;28;19923;-64
2022/06/14 13:00:14;;;;;;;;;;;;;;;21.65;27.03;100638.06;5090839;28;19915;-65
2022/06/14 13:02:59;;;;;;;;;;;;;;;21.47;27.34;100648.47;5092098;28;20576;-65
2022/06/14 13:05:38;;;;;;;;;;;;;;;21.78;27.29;100650.78;5092026;28;19923;-65
2022/06/14 13:08:13;;;;;;;;;;;;;;;21.92;26.89;100654.03;5092514;28;19924;-63
2022/06/14 13:11:02;;;;;;;;;;;;;;;21.88;26.99;100661.41;5091898;28;19916;-64
2022/06/14 13:14:08;;;;;;;;;;;;;;;21.75;26.86;100668.06;5089892;28;20714;-63
2022/06/14 13:16:43;;;;;;;;;;;;;;;22.06;26.72;100675.06;5052376;28;19921;-64
2022/06/14 13:19:25;;;;;;;;;;;;;;;22.52;25.65;100671.09;5056118;28;19916;-64
2022/06/14 13:22:10;;;;;;;;;;;;;;;22.65;25.33;100671.91;5083573;28;19916;-63
2022/06/14 13:24:40;;;;;;;;;;;;;;;22.55;25.93;100681.47;5127415;27;20003;-64
2022/06/14 13:27:18;;;;;;;;;;;;;;;22.65;25.55;100680.22;5110911;28;20374;-63